CheckWX is a tool to help pilots better visualize weather data.  It is not intended as a substitute for an official pre-flight weather briefing.

14:32:51 UTC

KMDQ METAR
Huntsville Executive Tom Sharp Jr Field Airport
Huntsville, Alabama, USA
Current

18 mins ago

KMDQ 221415Z AUTO 09004KT 10SM CLR 17/10 A3023 RMK A02 T01710100
Observed
Apr-22 @ 14:15 UTC
Wind
  • 090° at 4 KTS
Visibility
10 SM
Flight Rules
VFR
Cloud Levels
  • Clear skies
Temperature
17°C / 63°F
Dewpoint
10°C / 50°F
Humidity
64%
Altimeter
30.23" Hg
Pressure
1023.72 hPa
Previous

38 mins ago

KMDQ 221355Z AUTO 09003KT 10SM CLR 16/10 A3023 RMK A02 T01610098
Observed
Apr-22 @ 13:55 UTC
Wind
  • 090° at 3 KTS
Visibility
10 SM
Flight Rules
VFR
Cloud Levels
  • Clear skies
Temperature
16°C / 61°F
Dewpoint
10°C / 50°F
Humidity
68%
Altimeter
30.23" Hg
Pressure
1023.72 hPa
Previous

58 mins ago

KMDQ 221335Z AUTO 00000KT 10SM CLR 15/08 A3023 RMK A02 T01470081
Observed
Apr-22 @ 13:35 UTC
Visibility
10 SM
Flight Rules
VFR
Cloud Levels
  • Clear skies
Temperature
15°C / 59°F
Dewpoint
C / 46°F
Humidity
63%
Altimeter
30.23" Hg
Pressure
1023.72 hPa